Time;durP1;ratioP1;P1;durP2;ratioP2;P2;SDS_P1;SDS_P2;PMS_P1;PMS_P2;Temp;Humidity;BMP_temperature;BMP_pressure;BME280_temperature;BME280_humidity;BME280_pressure;Samples;Min_cycle;Max_cycle;Signal;HPM_P1;HPM_P2
2023/10/11 00:01:47;;;;;;;0.00;0.00;;;16.40;99.90;;;;;;6217791;23;20011;-83
2023/10/11 00:04:26;;;;;;;0.00;0.00;;;;;;;;;;6218856;23;20004;-85
2023/10/11 00:06:54;;;;;;;0.00;0.00;;;;;;;;;;6245715;23;20011;-85
2023/10/11 00:09:34;;;;;;;0.00;0.00;;;16.50;99.90;;;;;;6219206;23;20010;-85
2023/10/11 00:12:00;;;;;;;0.00;0.00;;;16.50;99.90;;;;;;6218739;22;20000;-84
2023/10/11 00:14:27;;;;;;;0.00;0.00;;;16.30;99.90;;;;;;6219391;23;20004;-84
2023/10/11 00:16:54;;;;;;;0.00;0.00;;;16.50;99.90;;;;;;6245888;23;20331;-84
2023/10/11 00:19:22;;;;;;;0.00;0.00;;;16.50;99.90;;;;;;6218883;23;20008;-85
2023/10/11 00:21:49;;;;;;;0.00;0.00;;;16.50;99.90;;;;;;6218511;23;20000;-84
2023/10/11 00:24:17;;;;;;;0.00;0.00;;;16.40;99.90;;;;;;6218669;23;20020;-84
2023/10/11 00:26:44;;;;;;;0.00;0.00;;;16.40;99.90;;;;;;6218343;23;20347;-84
2023/10/11 00:29:11;;;;;;;0.00;0.00;;;16.50;99.90;;;;;;6218982;23;20032;-84
2023/10/11 00:31:38;;;;;;;0.00;0.00;;;;;;;;;;6218563;23;20004;-86
2023/10/11 00:34:07;;;;;;;0.00;0.00;;;16.30;99.90;;;;;;6218777;23;20328;-84
2023/10/11 00:36:33;;;;;;;0.00;0.00;;;;;;;;;;6245684;23;20008;-84
2023/10/11 00:38:59;;;;;;;0.00;0.00;;;;;;;;;;6244826;23;20039;-85
2023/10/11 00:41:31;;;;;;;0.00;0.00;;;16.60;99.90;;;;;;6218990;23;20004;-85
2023/10/11 00:43:57;;;;;;;0.00;0.00;;;16.60;99.90;;;;;;6245837;22;20044;-85
2023/10/11 00:46:35;;;;;;;0.00;0.00;;;16.50;99.90;;;;;;6218197;23;20390;-84
2023/10/11 00:49:14;;;;;;;0.00;0.00;;;;;;;;;;6218520;23;20340;-84
2023/10/11 00:51:42;;;;;;;0.00;0.00;;;16.70;99.90;;;;;;6217274;23;20000;-83
2023/10/11 00:54:12;;;;;;;0.00;0.00;;;16.50;99.90;;;;;;6216375;23;20498;-85
2023/10/11 00:56:43;;;;;;;0.00;0.00;;;16.60;99.90;;;;;;6218393;23;20055;-83
2023/10/11 00:59:10;;;;;;;0.00;0.00;;;16.50;99.90;;;;;;6218874;23;20054;-85
2023/10/11 01:01:40;;;;;;;0.00;0.00;;;16.60;99.90;;;;;;6218041;23;20008;-85
2023/10/11 01:04:08;;;;;;;0.00;0.00;;;16.60;99.90;;;;;;6218783;23;20011;-84
2023/10/11 01:06:34;;;;;;;0.00;0.00;;;;;;;;;;6217746;23;20004;-86
2023/10/11 01:09:00;;;;;;;0.00;0.00;;;;;;;;;;6218887;23;20008;-83
2023/10/11 01:11:28;;;;;;;0.00;0.00;;;;;;;;;;6217990;23;20030;-83
2023/10/11 01:13:53;;;;;;;0.00;0.00;;;16.40;99.90;;;;;;6217414;23;20362;-84
2023/10/11 01:16:26;;;;;;;0.00;0.00;;;16.50;99.90;;;;;;6218265;23;20004;-84
2023/10/11 01:18:53;;;;;;;0.00;0.00;;;;;;;;;;6218154;23;20395;-86
2023/10/11 01:21:19;;;;;;;0.00;0.00;;;;;;;;;;6217794;23;20000;-82
2023/10/11 01:23:45;;;;;;;0.00;0.00;;;16.30;99.90;;;;;;6217416;23;20073;-84
2023/10/11 01:26:11;;;;;;;0.00;0.00;;;;;;;;;;6218142;23;20004;-84
2023/10/11 01:28:44;;;;;;;0.00;0.00;;;16.40;99.90;;;;;;6216977;23;19996;-85
2023/10/11 01:31:10;;;;;;;0.00;0.00;;;;;;;;;;6217247;23;20012;-84
2023/10/11 01:33:41;;;;;;;0.00;0.00;;;16.50;99.90;;;;;;6217842;23;20395;-85
2023/10/11 01:36:11;;;;;;;0.00;0.00;;;16.40;99.90;;;;;;6244728;23;20000;-84
2023/10/11 01:38:49;;;;;;;0.00;0.00;;;16.40;99.90;;;;;;6244644;23;20455;-82
2023/10/11 01:41:19;;;;;;;0.00;0.00;;;16.50;99.90;;;;;;6219044;23;20340;-84
2023/10/11 01:43:49;;;;;;;0.00;0.00;;;16.40;99.90;;;;;;6218243;23;20012;-85
2023/10/11 01:46:16;;;;;;;0.00;0.00;;;16.50;99.90;;;;;;6218330;23;20004;-83
2023/10/11 01:48:43;;;;;;;0.00;0.00;;;16.30;99.90;;;;;;6217649;23;20439;-84
2023/10/11 01:51:09;;;;;;;0.00;0.00;;;16.50;99.90;;;;;;6229557;22;20035;-84
2023/10/11 01:53:38;;;;;;;0.00;0.00;;;;;;;;;;6245217;22;19999;-88
2023/10/11 01:56:04;;;;;;;0.00;0.00;;;16.40;99.90;;;;;;6223440;23;20015;-88
2023/10/11 01:58:30;;;;;;;0.00;0.00;;;;;;;;;;6223333;23;20008;-88
2023/10/11 02:00:55;;;;;;;0.00;0.00;;;16.60;99.90;;;;;;6223135;23;20008;-88
2023/10/11 02:03:24;;;;;;;0.00;0.00;;;;;;;;;;6222296;23;20065;-87
2023/10/11 02:05:50;;;;;;;0.00;0.00;;;16.30;99.90;;;;;;6218378;23;20034;-85
2023/10/11 02:08:17;;;;;;;0.00;0.00;;;;;;;;;;6217775;23;20000;-84
2023/10/11 02:10:44;;;;;;;0.00;0.00;;;16.40;99.90;;;;;;6218039;23;20000;-83
2023/10/11 02:13:10;;;;;;;0.00;0.00;;;16.20;99.90;;;;;;6218035;23;20032;-85
2023/10/11 02:15:37;;;;;;;0.00;0.00;;;16.50;99.90;;;;;;6217198;23;20110;-83
2023/10/11 02:18:08;;;;;;;0.00;0.00;;;16.40;99.90;;;;;;6216888;23;20004;-84
2023/10/11 02:20:35;;;;;;;0.00;0.00;;;16.40;99.90;;;;;;6244616;23;20469;-84
2023/10/11 02:23:01;;;;;;;0.00;0.00;;;;;;;;;;6217866;23;20038;-84
2023/10/11 04:10:38;;;;;;;0.00;0.00;;;16.20;99.90;;;;;;6235144;22;20023;-87
2023/10/11 04:13:11;;;;;;;;;;;;;;;;;;;;;
2023/10/11 04:46:51;;;;;;;0.00;0.00;;;16.20;99.90;;;;;;6271170;22;20004;-86
2023/10/11 04:49:23;;;;;;;0.00;0.00;;;;;;;;;;6246075;22;20008;-87
2023/10/11 04:51:49;;;;;;;0.00;0.00;;;;;;;;;;6246756;22;20013;-86
2023/10/11 04:54:17;;;;;;;0.00;0.00;;;;;;;;;;6245658;22;19996;-86
2023/10/11 04:59:46;;;;;;;;;;;;;;;;;;;;;
2023/10/11 05:02:22;;;;;;;0.00;0.00;;;;;;;;;;6269167;22;20030;-87
2023/10/11 05:28:26;;;;;;;0.00;0.00;;;15.80;99.90;;;;;;6276174;22;20020;-88
2023/10/11 05:36:40;;;;;;;0.00;0.00;;;;;;;;;;6248403;22;20031;-91
2023/10/11 05:52:55;;;;;;;0.00;0.00;;;;;;;;;;6198729;23;20011;-87
2023/10/11 05:55:22;;;;;;;0.00;0.00;;;15.60;99.90;;;;;;6217599;23;20353;-88
2023/10/11 05:57:48;;;;;;;0.00;0.00;;;;;;;;;;6217938;23;20008;-87
2023/10/11 06:00:24;;;;;;;0.00;0.00;;;15.70;99.90;;;;;;6217548;23;20091;-88
2023/10/11 06:02:52;;;;;;;0.00;0.00;;;15.80;99.90;;;;;;6217535;23;20427;-86
2023/10/11 06:05:22;;;;;;;0.00;0.00;;;15.70;99.90;;;;;;6216690;23;20435;-87
2023/10/11 06:08:00;;;;;;;0.00;0.00;;;15.80;99.90;;;;;;6217466;23;20000;-88
2023/10/11 06:10:29;;;;;;;0.00;0.00;;;;;;;;;;6217127;23;20004;-86
2023/10/11 06:12:58;;;;;;;0.00;0.00;;;;;;;;;;6218280;23;20435;-88
2023/10/11 06:15:24;;;;;;;0.00;0.00;;;;;;;;;;6217316;23;20027;-87
2023/10/11 06:17:49;;;;;;;0.00;0.00;;;15.80;99.90;;;;;;6217648;23;20001;-88
2023/10/11 06:20:27;;;;;;;0.00;0.00;;;15.80;99.90;;;;;;6215937;23;20004;-88
2023/10/11 06:22:56;;;;;;;0.00;0.00;;;15.70;99.90;;;;;;6217162;23;20004;-88
2023/10/11 06:25:23;;;;;;;0.00;0.00;;;;;;;;;;6216471;23;20039;-87
2023/10/11 06:30:24;;;;;;;0.00;0.00;;;;;;;;;;6254246;23;20004;-87
2023/10/11 06:32:50;;;;;;;0.00;0.00;;;15.80;99.90;;;;;;6243568;23;20011;-87
2023/10/11 06:35:25;;;;;;;0.00;0.00;;;15.80;99.90;;;;;;6215982;23;20008;-88
2023/10/11 06:37:54;;;;;;;0.00;0.00;;;15.80;99.90;;;;;;6216085;23;20086;-88
2023/10/11 06:40:38;;;;;;;0.00;0.00;;;;;;;;;;6217873;23;20011;-88
2023/10/11 06:43:07;;;;;;;0.00;0.00;;;15.70;99.90;;;;;;6218252;23;20000;-88
2023/10/11 06:45:33;;;;;;;0.00;0.00;;;;;;;;;;6216367;23;20016;-87
2023/10/11 06:48:06;;;;;;;0.00;0.00;;;;;;;;;;6216209;23;20004;-88
2023/10/11 06:50:36;;;;;;;0.00;0.00;;;15.90;99.90;;;;;;6217248;23;20004;-87
2023/10/11 06:53:06;;;;;;;0.00;0.00;;;15.90;99.90;;;;;;6217481;23;20012;-88
2023/10/11 06:55:33;;;;;;;0.00;0.00;;;;;;;;;;6214833;23;20060;-87
2023/10/11 06:58:02;;;;;;;0.00;0.00;;;16.00;99.90;;;;;;6216792;23;20008;-88
2023/10/11 07:00:29;;;;;;;0.00;0.00;;;;;;;;;;6216907;23;20652;-86
2023/10/11 07:03:07;;;;;;;0.00;0.00;;;16.00;99.90;;;;;;6244110;23;20004;-87
2023/10/11 07:05:46;;;;;;;0.00;0.00;;;16.10;99.90;;;;;;6216344;23;20008;-89
2023/10/11 07:08:17;;;;;;;0.00;0.00;;;16.10;99.90;;;;;;6216731;23;20008;-87
2023/10/11 07:16:19;;;;;;;0.00;0.00;;;;;;;;;;6244869;22;20015;-90
2023/10/11 07:18:54;;;;;;;0.00;0.00;;;;;;;;;;6213497;23;20008;-89
2023/10/11 07:21:26;;;;;;;0.00;0.00;;;16.40;99.90;;;;;;6217075;23;20034;-90
2023/10/11 07:29:02;;;;;;;0.00;0.00;;;16.70;99.90;;;;;;6245346;23;20020;-89
2023/10/11 07:31:35;;;;;;;0.00;0.00;;;16.20;99.90;;;;;;6217879;23;20347;-89
2023/10/11 07:34:06;;;;;;;0.00;0.00;;;16.90;99.90;;;;;;6218476;23;20008;-88
2023/10/11 07:36:39;;;;;;;0.00;0.00;;;16.80;99.90;;;;;;6218040;23;20028;-88
2023/10/11 07:39:19;;;;;;;0.00;0.00;;;16.90;99.90;;;;;;6218204;23;20039;-89
2023/10/11 07:41:48;;;;;;;0.00;0.00;;;17.00;99.90;;;;;;6218011;23;20497;-88
2023/10/11 07:44:18;;;;;;;0.00;0.00;;;;;;;;;;6217935;23;20332;-89
2023/10/11 07:46:48;;;;;;;0.00;0.00;;;17.20;99.90;;;;;;6218503;23;20001;-90
2023/10/11 07:49:23;;;;;;;;;;;17.20;99.90;;;;;;6218753;23;20000;-89
2023/10/11 07:51:52;;;;;;;0.00;0.00;;;17.10;99.90;;;;;;6217659;23;19949;-87
2023/10/11 07:54:22;;;;;;;0.00;0.00;;;17.20;99.90;;;;;;6244396;23;20431;-88
2023/10/11 07:56:57;;;;;;;0.00;0.00;;;17.30;99.90;;;;;;6218167;23;20015;-88
2023/10/11 07:59:26;;;;;;;0.00;0.00;;;17.20;99.90;;;;;;6217631;23;20313;-89
2023/10/11 08:02:07;;;;;;;0.00;0.00;;;17.30;99.90;;;;;;6217936;23;20054;-89
2023/10/11 08:04:35;;;;;;;0.00;0.00;;;;;;;;;;6219919;22;20300;-89
2023/10/11 08:07:03;;;;;;;0.00;0.00;;;17.60;99.90;;;;;;6220249;23;20422;-89
2023/10/11 08:09:45;;;;;;;0.00;0.00;;;17.60;99.90;;;;;;6219538;23;20000;-88
2023/10/11 08:12:18;;;;;;;0.00;0.00;;;17.70;99.90;;;;;;6219421;23;20000;-88
2023/10/11 08:14:46;;;;;;;0.00;0.00;;;17.80;99.90;;;;;;6218972;22;20522;-87
2023/10/11 08:17:17;;;;;;;0.00;0.00;;;17.80;99.90;;;;;;6219619;23;20000;-88
2023/10/11 08:19:46;;;;;;;0.00;0.00;;;17.80;99.90;;;;;;6218450;23;20008;-87
2023/10/11 08:22:16;;;;;;;0.00;0.00;;;18.00;99.90;;;;;;6217763;23;20027;-87
2023/10/11 08:24:46;;;;;;;;;;;18.00;99.90;;;;;;6220385;22;20008;-87
2023/10/11 08:32:51;;;;;;;0.00;0.00;;;18.20;99.90;;;;;;6245812;23;20438;-88
2023/10/11 08:35:17;;;;;;;0.00;0.00;;;18.20;99.90;;;;;;6218491;23;20079;-87
2023/10/11 08:37:52;;;;;;;0.00;0.00;;;18.30;99.90;;;;;;6219513;23;20027;-87
2023/10/11 08:40:29;;;;;;;0.00;0.00;;;18.40;99.90;;;;;;6219358;23;19997;-88
2023/10/11 08:42:59;;;;;;;0.00;0.00;;;18.40;99.90;;;;;;6246401;23;20095;-88
2023/10/11 08:45:33;;;;;;;0.00;0.00;;;18.50;99.90;;;;;;6217054;23;20008;-89
2023/10/11 08:48:06;;;;;;;0.00;0.00;;;18.50;99.90;;;;;;6220054;23;20000;-89
2023/10/11 08:50:35;;;;;;;0.00;0.00;;;18.40;99.90;;;;;;6219739;23;20004;-89
2023/10/11 08:53:07;;;;;;;0.00;0.00;;;18.40;99.90;;;;;;6194521;23;20059;-87
2023/10/11 08:55:42;;;;;;;0.00;0.00;;;18.60;99.90;;;;;;6216640;23;20008;-88
2023/10/11 08:58:27;;;;;;;0.00;0.00;;;18.80;99.90;;;;;;6218418;23;20450;-89
2023/10/11 09:00:55;;;;;;;0.00;0.00;;;18.60;99.90;;;;;;6218497;23;20008;-87
2023/10/11 09:03:23;;;;;;;0.00;0.00;;;18.80;99.90;;;;;;6218411;23;20606;-85
2023/10/11 09:05:58;;;;;;;0.00;0.00;;;18.80;99.90;;;;;;6218495;23;20011;-88
2023/10/11 09:08:31;;;;;;;0.00;0.00;;;19.00;99.90;;;;;;6218472;23;20083;-88
2023/10/11 09:11:11;;;;;;;0.00;0.00;;;19.00;99.90;;;;;;6218104;23;20030;-86
2023/10/11 09:13:38;;;;;;;0.00;0.00;;;19.10;99.90;;;;;;6217715;23;20004;-87
2023/10/11 09:16:12;;;;;;;0.00;0.00;;;19.10;99.90;;;;;;6218404;23;20043;-87
2023/10/11 09:18:38;;;;;;;0.00;0.00;;;19.00;99.90;;;;;;6217566;23;20004;-87
2023/10/11 09:21:18;;;;;;;0.00;0.00;;;19.20;99.90;;;;;;6218334;23;20015;-87
2023/10/11 09:23:48;;;;;;;0.00;0.00;;;19.00;99.90;;;;;;6218793;23;20082;-88
2023/10/11 09:26:32;;;;;;;;;;;19.20;99.90;;;;;;6218475;23;20440;-88
2023/10/11 09:29:02;;;;;;;0.00;0.00;;;19.20;99.90;;;;;;6216331;23;19907;-88
2023/10/11 09:31:30;;;;;;;0.00;0.00;;;19.00;99.90;;;;;;6218582;23;20362;-87
2023/10/11 09:34:07;;;;;;;0.00;0.00;;;19.00;99.90;;;;;;6245501;23;20494;-88
2023/10/11 09:36:33;;;;;;;0.00;0.00;;;19.10;99.90;;;;;;6218090;23;20028;-86
2023/10/11 09:39:01;;;;;;;0.00;0.00;;;19.00;99.90;;;;;;6246047;23;20000;-87
2023/10/11 09:41:38;;;;;;;0.00;0.00;;;19.30;99.90;;;;;;6219496;23;20023;-88
2023/10/11 09:44:05;;;;;;;0.00;0.00;;;;;;;;;;6219417;23;20335;-88
2023/10/11 09:46:33;;;;;;;0.00;0.00;;;21.30;99.90;;;;;;6218596;23;20032;-88
2023/10/11 09:49:00;;;;;;;0.00;0.00;;;;;;;;;;6219174;23;20004;-88
2023/10/11 09:51:26;;;;;;;0.00;0.00;;;19.50;99.90;;;;;;6246217;23;20527;-87
2023/10/11 09:53:53;;;;;;;0.00;0.00;;;19.80;99.90;;;;;;6218594;23;20004;-88
2023/10/11 09:56:50;;;;;;;0.00;0.00;;;19.60;99.90;;;;;;6218730;23;20012;-86
2023/10/11 09:59:41;;;;;;;0.00;0.00;;;19.60;99.90;;;;;;6219400;23;20019;-87
2023/10/11 10:02:07;;;;;;;0.00;0.00;;;;;;;;;;6219454;23;20023;-88
2023/10/11 10:04:51;;;;;;;0.00;0.00;;;19.80;99.90;;;;;;6218500;22;20030;-89
2023/10/11 10:07:21;;;;;;;0.00;0.00;;;19.80;99.90;;;;;;6218119;23;20019;-89
2023/10/11 10:09:59;;;;;;;0.00;0.00;;;20.00;99.90;;;;;;6218757;23;19996;-89
2023/10/11 10:12:25;;;;;;;0.00;0.00;;;;;;;;;;6215874;23;20083;-89
2023/10/11 10:15:13;;;;;;;0.00;0.00;;;20.30;99.90;;;;;;6217449;23;20031;-88
2023/10/11 10:18:05;;;;;;;0.00;0.00;;;20.40;99.90;;;;;;6217622;23;20014;-88
2023/10/11 10:20:34;;;;;;;0.00;0.00;;;20.50;99.90;;;;;;6218053;23;20004;-89
2023/10/11 10:23:15;;;;;;;0.00;0.00;;;20.70;99.90;;;;;;6217133;23;20039;-89
2023/10/11 10:25:48;;;;;;;0.00;0.00;;;20.70;99.90;;;;;;6217039;23;20000;-90
2023/10/11 10:28:34;;;;;;;0.00;0.00;;;20.90;99.90;;;;;;6218020;23;20016;-88
2023/10/11 10:31:09;;;;;;;0.00;0.00;;;20.90;99.90;;;;;;6245360;23;20000;-89
2023/10/11 10:33:39;;;;;;;0.00;0.00;;;20.90;99.90;;;;;;6217900;23;20000;-89
2023/10/11 10:36:29;;;;;;;0.00;0.00;;;20.90;99.90;;;;;;6217082;23;20015;-88
2023/10/11 10:39:00;;;;;;;0.00;0.00;;;21.10;99.90;;;;;;6217156;23;20083;-88
2023/10/11 10:41:33;;;;;;;0.00;0.00;;;21.00;99.90;;;;;;6217869;23;20004;-89
2023/10/11 10:44:29;;;;;;;0.00;0.00;;;21.00;99.90;;;;;;6217621;23;20011;-89
2023/10/11 10:46:55;;;;;;;0.00;0.00;;;21.10;99.90;;;;;;6187354;23;20019;-89
2023/10/11 10:49:42;;;;;;;0.00;0.00;;;21.10;99.90;;;;;;6218068;23;20335;-87
2023/10/11 10:52:18;;;;;;;0.00;0.00;;;21.10;99.90;;;;;;6218717;23;20023;-87
2023/10/11 10:55:03;;;;;;;0.00;0.00;;;21.10;99.90;;;;;;6217190;22;20505;-88
2023/10/11 10:57:31;;;;;;;0.00;0.00;;;21.10;99.90;;;;;;6217855;23;20000;-89
2023/10/11 10:59:57;;;;;;;0.00;0.00;;;;;;;;;;6217676;23;20034;-87
2023/10/11 11:02:23;;;;;;;0.00;0.00;;;;;;;;;;6217685;23;20078;-87
2023/10/11 11:04:49;;;;;;;0.00;0.00;;;21.30;99.90;;;;;;6216948;23;20415;-89
2023/10/11 11:07:24;;;;;;;0.00;0.00;;;21.40;99.90;;;;;;6218104;23;20007;-89
2023/10/11 11:09:57;;;;;;;0.00;0.00;;;21.50;99.90;;;;;;6217742;23;20008;-88
2023/10/11 11:12:30;;;;;;;0.00;0.00;;;21.50;99.90;;;;;;6217417;23;20027;-89
2023/10/11 11:15:00;;;;;;;0.00;0.00;;;21.60;99.90;;;;;;6244932;22;20037;-88
2023/10/11 11:17:45;;;;;;;;;;;21.50;99.90;;;;;;6218436;23;20058;-88
2023/10/11 11:22:46;;;;;;;0.00;0.00;;;21.50;99.90;;;;;;6254529;23;20008;-87
2023/10/11 11:25:34;;;;;;;0.00;0.00;;;21.50;99.90;;;;;;6217466;23;20011;-88
2023/10/11 11:28:14;;;;;;;0.00;0.00;;;21.40;99.90;;;;;;6217653;23;20039;-89
2023/10/11 11:30:43;;;;;;;0.00;0.00;;;;;;;;;;6217526;23;20012;-87
2023/10/11 11:33:21;;;;;;;0.00;0.00;;;21.40;99.90;;;;;;6217413;23;20007;-88
2023/10/11 11:35:55;;;;;;;0.00;0.00;;;21.40;99.90;;;;;;6217914;23;20039;-87
2023/10/11 11:38:21;;;;;;;0.00;0.00;;;21.40;99.90;;;;;;6219026;23;20004;-88
2023/10/11 11:40:48;;;;;;;0.00;0.00;;;21.50;99.90;;;;;;6219606;23;20501;-88
2023/10/11 11:43:19;;;;;;;0.00;0.00;;;21.50;99.90;;;;;;6219967;23;20343;-88
2023/10/11 11:45:47;;;;;;;0.00;0.00;;;21.50;99.90;;;;;;6217232;23;20011;-85
2023/10/11 11:48:23;;;;;;;0.00;0.00;;;;;;;;;;6218658;23;20000;-87
2023/10/11 11:50:48;;;;;;;0.00;0.00;;;21.40;99.90;;;;;;6221161;23;20435;-86
2023/10/11 11:53:18;;;;;;;0.00;0.00;;;;;;;;;;6219846;23;20001;-86
2023/10/11 11:55:45;;;;;;;0.00;0.00;;;21.60;99.90;;;;;;6218876;23;20004;-85
2023/10/11 11:58:10;;;;;;;0.00;0.00;;;21.30;99.90;;;;;;6219308;23;20007;-87
2023/10/11 12:00:40;;;;;;;0.00;0.00;;;21.40;99.90;;;;;;6219252;23;20427;-87
2023/10/11 12:03:08;;;;;;;0.00;0.00;;;21.30;99.90;;;;;;6218770;23;20008;-87
2023/10/11 12:05:40;;;;;;;0.00;0.00;;;;;;;;;;6219065;23;20078;-88
2023/10/11 12:08:08;;;;;;;0.00;0.00;;;21.30;99.90;;;;;;6219646;23;20039;-88
2023/10/11 12:10:37;;;;;;;0.00;0.00;;;21.20;99.90;;;;;;6219650;23;20012;-87
2023/10/11 12:13:05;;;;;;;0.00;0.00;;;21.20;99.90;;;;;;6218970;23;20008;-88
2023/10/11 12:15:32;;;;;;;0.00;0.00;;;21.40;99.90;;;;;;6218247;23;20009;-88
2023/10/11 12:17:58;;;;;;;0.00;0.00;;;21.40;99.90;;;;;;6218857;23;20004;-89
2023/10/11 12:20:33;;;;;;;0.00;0.00;;;;;;;;;;6218891;23;20011;-88
2023/10/11 12:23:09;;;;;;;0.00;0.00;;;21.50;99.90;;;;;;6218470;23;20004;-87
2023/10/11 12:25:39;;;;;;;0.00;0.00;;;21.50;99.90;;;;;;6217768;23;20015;-88
2023/10/11 12:28:06;;;;;;;0.00;0.00;;;21.70;99.90;;;;;;6218339;23;20020;-89
2023/10/11 12:30:33;;;;;;;0.00;0.00;;;21.60;99.90;;;;;;6218871;23;20003;-88
2023/10/11 12:33:06;;;;;;;0.00;0.00;;;21.50;99.90;;;;;;6219148;23;20321;-88
2023/10/11 12:35:33;;;;;;;0.00;0.00;;;21.40;99.90;;;;;;6219231;23;20390;-89
2023/10/11 12:38:00;;;;;;;0.00;0.00;;;21.30;99.90;;;;;;6219062;23;20012;-88
2023/10/11 12:40:28;;;;;;;0.00;0.00;;;21.40;99.90;;;;;;6217591;23;20082;-89
2023/10/11 12:42:55;;;;;;;0.00;0.00;;;21.50;99.90;;;;;;6219039;23;20037;-88
2023/10/11 12:45:21;;;;;;;0.00;0.00;;;21.30;99.90;;;;;;6218300;23;20008;-89
2023/10/11 12:47:47;;;;;;;0.00;0.00;;;;;;;;;;6218209;23;20347;-89
2023/10/11 12:50:17;;;;;;;0.00;0.00;;;;;;;;;;6218459;23;20481;-88
2023/10/11 12:52:45;;;;;;;0.00;0.00;;;21.30;99.90;;;;;;6218602;23;20008;-89
2023/10/11 12:55:12;;;;;;;0.00;0.00;;;21.30;99.90;;;;;;6218881;23;20004;-88
2023/10/11 12:57:39;;;;;;;0.00;0.00;;;21.30;99.90;;;;;;6218725;23;20012;-87
2023/10/11 13:03:15;;;;;;;;;;;21.40;99.90;;;;;;6246233;23;20014;-87
2023/10/11 13:05:45;;;;;;;0.00;0.00;;;21.40;99.90;;;;;;6245116;22;20319;-88
2023/10/11 13:08:11;;;;;;;0.00;0.00;;;;;;;;;;6218869;23;20004;-87
2023/10/11 13:10:45;;;;;;;0.00;0.00;;;21.50;99.90;;;;;;6216157;23;20058;-86
2023/10/11 13:13:11;;;;;;;0.00;0.00;;;;;;;;;;6218189;23;20004;-87
2023/10/11 13:15:39;;;;;;;0.00;0.00;;;;;;;;;;6217775;23;20015;-86
2023/10/11 13:18:09;;;;;;;0.00;0.00;;;21.40;99.90;;;;;;6218615;23;20134;-87
2023/10/11 13:20:36;;;;;;;0.00;0.00;;;21.40;99.90;;;;;;6218562;23;20316;-87
2023/10/11 13:23:02;;;;;;;0.00;0.00;;;;;;;;;;6218222;23;20008;-87
2023/10/11 13:25:28;;;;;;;0.00;0.00;;;;;;;;;;6218571;23;20083;-88
2023/10/11 13:27:54;;;;;;;0.00;0.00;;;;;;;;;;6216552;23;20407;-89
2023/10/11 13:30:23;;;;;;;0.00;0.00;;;21.60;99.90;;;;;;6217913;23;20008;-88
2023/10/11 13:32:50;;;;;;;0.00;0.00;;;21.60;99.90;;;;;;6244340;23;20024;-88
2023/10/11 13:35:17;;;;;;;0.00;0.00;;;21.70;99.90;;;;;;6218665;23;20107;-88
2023/10/11 13:37:46;;;;;;;0.00;0.00;;;21.80;99.90;;;;;;6218711;23;20004;-90
2023/10/11 13:40:16;;;;;;;0.00;0.00;;;21.70;99.90;;;;;;6218328;23;20031;-87
2023/10/11 13:42:43;;;;;;;0.00;0.00;;;21.60;99.90;;;;;;6218256;23;20009;-88
2023/10/11 13:45:16;;;;;;;0.00;0.00;;;21.70;99.90;;;;;;6218095;23;20032;-88
2023/10/11 13:47:42;;;;;;;0.00;0.00;;;;;;;;;;6218538;23;20008;-87
2023/10/11 13:50:08;;;;;;;0.00;0.00;;;;;;;;;;6218596;23;20004;-88
2023/10/11 13:52:41;;;;;;;0.00;0.00;;;21.70;99.90;;;;;;6217906;23;20369;-88
2023/10/11 13:55:11;;;;;;;0.00;0.00;;;21.60;99.90;;;;;;6217202;23;20031;-87
2023/10/11 13:57:37;;;;;;;0.00;0.00;;;;;;;;;;6217161;23;20346;-87
2023/10/11 14:01:01;;;;;;;0.00;0.00;;;21.30;99.90;;;;;;6216604;23;20024;-87
2023/10/11 14:02:52;;;;;;;0.00;0.00;;;21.40;99.90;;;;;;6243149;23;20000;-87
2023/10/11 14:05:18;;;;;;;0.00;0.00;;;;;;;;;;6208664;23;20011;-86
2023/10/11 14:07:50;;;;;;;0.00;0.00;;;21.40;99.90;;;;;;6215916;23;20000;-88
2023/10/11 14:10:21;;;;;;;0.00;0.00;;;21.30;99.90;;;;;;6219559;23;20000;-87
2023/10/11 14:12:48;;;;;;;0.00;0.00;;;;;;;;;;6218510;23;20038;-86
2023/10/11 14:15:22;;;;;;;0.00;0.00;;;21.30;99.90;;;;;;6219024;23;20067;-87
2023/10/11 14:17:51;;;;;;;0.00;0.00;;;21.30;99.90;;;;;;6218068;23;20450;-88
2023/10/11 14:20:21;;;;;;;0.00;0.00;;;21.10;99.90;;;;;;6219310;23;20049;-85
2023/10/11 14:22:48;;;;;;;0.00;0.00;;;;;;;;;;6219431;23;20008;-87
2023/10/11 14:25:14;;;;;;;0.00;0.00;;;;;;;;;;6218575;23;20058;-87
2023/10/11 14:27:40;;;;;;;0.00;0.00;;;;;;;;;;6218588;23;20008;-87
2023/10/11 14:30:12;;;;;;;0.00;0.00;;;21.00;99.90;;;;;;6218951;23;20053;-85
2023/10/11 14:32:38;;;;;;;0.00;0.00;;;20.90;99.90;;;;;;6245936;23;19999;-86
2023/10/11 14:35:08;;;;;;;0.00;0.00;;;21.00;99.90;;;;;;6218714;23;20011;-87
2023/10/11 14:37:34;;;;;;;0.00;0.00;;;21.00;99.90;;;;;;6219070;23;20000;-87
2023/10/11 14:40:00;;;;;;;0.00;0.00;;;21.00;99.90;;;;;;6219424;23;20004;-86
2023/10/11 14:42:29;;;;;;;0.00;0.00;;;;;;;;;;6219295;23;20386;-87
2023/10/11 14:44:55;;;;;;;0.00;0.00;;;;;;;;;;6218778;23;20001;-87
2023/10/11 14:47:24;;;;;;;0.00;0.00;;;;;;;;;;6219043;23;20039;-87
2023/10/11 14:49:50;;;;;;;0.00;0.00;;;;;;;;;;6218865;23;20004;-85
2023/10/11 14:52:18;;;;;;;0.00;0.00;;;20.90;99.90;;;;;;6219726;23;20402;-86
2023/10/11 14:54:45;;;;;;;0.00;0.00;;;21.00;99.90;;;;;;6218126;22;19996;-86
2023/10/11 14:57:11;;;;;;;0.00;0.00;;;21.00;99.90;;;;;;6219837;23;20008;-85
2023/10/11 14:59:38;;;;;;;0.00;0.00;;;20.90;99.90;;;;;;6219810;23;20065;-85
2023/10/11 15:02:04;;;;;;;0.00;0.00;;;;;;;;;;6218603;23;20004;-87
2023/10/11 15:04:32;;;;;;;0.00;0.00;;;21.00;99.90;;;;;;6219116;22;20427;-86
2023/10/11 15:06:58;;;;;;;0.00;0.00;;;20.90;99.90;;;;;;6218548;23;20348;-87
2023/10/11 15:09:24;;;;;;;0.00;0.00;;;;;;;;;;6219531;23;20003;-88
2023/10/11 15:11:51;;;;;;;0.00;0.00;;;20.80;99.90;;;;;;6219039;23;20363;-90
2023/10/11 15:14:17;;;;;;;0.00;0.00;;;;;;;;;;6218595;23;20009;-88
2023/10/11 15:16:46;;;;;;;0.00;0.00;;;;;;;;;;6218132;23;20021;-88
2023/10/11 15:19:12;;;;;;;0.00;0.00;;;;;;;;;;6218139;23;20019;-88
2023/10/11 15:21:41;;;;;;;0.00;0.00;;;20.80;99.90;;;;;;6218096;23;20012;-88
2023/10/11 15:24:13;;;;;;;0.00;0.00;;;20.90;99.90;;;;;;6218727;23;20474;-89
2023/10/11 15:26:39;;;;;;;0.00;0.00;;;20.90;99.90;;;;;;6244438;22;20336;-89
2023/10/11 15:29:09;;;;;;;0.00;0.00;;;20.90;99.90;;;;;;6216657;23;20015;-88
2023/10/11 15:31:35;;;;;;;0.00;0.00;;;;;;;;;;6219267;23;20079;-87
2023/10/11 15:34:03;;;;;;;0.00;0.00;;;21.00;99.90;;;;;;6219508;23;20000;-86
2023/10/11 15:36:29;;;;;;;0.00;0.00;;;;;;;;;;6220128;23;20083;-88
2023/10/11 15:38:55;;;;;;;0.00;0.00;;;;;;;;;;6219321;23;20435;-86
2023/10/11 15:41:21;;;;;;;0.00;0.00;;;;;;;;;;6246111;23;20054;-86
2023/10/11 15:43:48;;;;;;;0.00;0.00;;;;;;;;;;6218807;23;20011;-87
2023/10/11 15:46:13;;;;;;;0.00;0.00;;;20.90;99.90;;;;;;6218507;23;20008;-87
2023/10/11 15:48:40;;;;;;;0.00;0.00;;;20.90;99.90;;;;;;6219173;23;19996;-87
2023/10/11 15:51:10;;;;;;;0.00;0.00;;;20.90;99.90;;;;;;6193790;23;20087;-88
2023/10/11 15:53:37;;;;;;;0.00;0.00;;;20.70;99.90;;;;;;6219099;23;20008;-87
2023/10/11 15:56:04;;;;;;;0.00;0.00;;;20.80;99.90;;;;;;6245429;22;20004;-87
2023/10/11 15:58:32;;;;;;;0.00;0.00;;;20.70;99.90;;;;;;6218628;23;20004;-88
2023/10/11 16:01:03;;;;;;;0.00;0.00;;;20.50;99.90;;;;;;6218243;23;20390;-87
2023/10/11 16:03:39;;;;;;;0.00;0.00;;;21.90;99.90;;;;;;6218736;23;20004;-88
2023/10/11 16:06:12;;;;;;;0.00;0.00;;;20.50;99.90;;;;;;6218639;23;20004;-87
2023/10/11 16:08:38;;;;;;;0.00;0.00;;;20.40;99.90;;;;;;6218628;23;20000;-87
2023/10/11 16:11:09;;;;;;;0.00;0.00;;;20.30;99.90;;;;;;6219122;23;20054;-86
2023/10/11 16:13:40;;;;;;;0.00;0.00;;;20.20;99.90;;;;;;6218291;23;19997;-87
2023/10/11 16:16:07;;;;;;;0.00;0.00;;;;;;;;;;6219480;23;20008;-86
2023/10/11 16:18:33;;;;;;;0.00;0.00;;;20.00;99.90;;;;;;6219327;23;20355;-87
2023/10/11 16:21:00;;;;;;;0.00;0.00;;;20.10;99.90;;;;;;6219495;23;20008;-86
2023/10/11 16:23:27;;;;;;;0.00;0.00;;;19.90;99.90;;;;;;6220436;23;20004;-85
2023/10/11 16:25:57;;;;;;;0.00;0.00;;;19.70;99.90;;;;;;6221150;23;20014;-87
2023/10/11 16:28:24;;;;;;;0.00;0.00;;;19.80;99.90;;;;;;6220978;23;20015;-87
2023/10/11 16:30:55;;;;;;;0.00;0.00;;;19.80;99.90;;;;;;6220779;23;20332;-86
2023/10/11 16:33:29;;;;;;;0.00;0.00;;;19.70;99.90;;;;;;6220479;23;20015;-87
2023/10/11 16:35:58;;;;;;;0.00;0.00;;;19.50;99.90;;;;;;6221065;23;20015;-87
2023/10/11 16:38:24;;;;;;;0.00;0.00;;;19.40;99.90;;;;;;6220654;23;20018;-87
2023/10/11 16:40:51;;;;;;;0.00;0.00;;;19.30;99.90;;;;;;6220685;23;20088;-87
2023/10/11 16:43:20;;;;;;;0.00;0.00;;;19.20;99.90;;;;;;6220964;23;20012;-86
2023/10/11 16:45:46;;;;;;;0.00;0.00;;;;;;;;;;6221049;23;20629;-87
2023/10/11 16:48:12;;;;;;;0.00;0.00;;;;;;;;;;6220860;23;20011;-86
2023/10/11 16:50:39;;;;;;;0.00;0.00;;;18.90;99.90;;;;;;6247864;23;20000;-86
2023/10/11 16:53:08;;;;;;;0.00;0.00;;;18.90;99.90;;;;;;6221003;23;20481;-86
2023/10/11 16:55:34;;;;;;;0.00;0.00;;;18.60;99.90;;;;;;6219930;23;20004;-87
2023/10/11 16:58:01;;;;;;;0.00;0.00;;;18.80;99.90;;;;;;6219151;23;20033;-88
2023/10/11 17:00:30;;;;;;;0.00;0.00;;;18.70;99.90;;;;;;6246473;23;20004;-87